createdAt,value
2018-06-29T00:01:41.760Z,16.80
2018-06-29T00:04:10.565Z,16.80
2018-06-29T00:06:39.462Z,16.80
2018-06-29T00:09:08.663Z,16.80
2018-06-29T00:11:37.350Z,16.80
2018-06-29T00:14:06.341Z,16.80
2018-06-29T00:16:35.184Z,16.80
2018-06-29T00:19:04.278Z,16.80
2018-06-29T00:21:33.055Z,16.80
2018-06-29T00:24:02.018Z,16.80
2018-06-29T00:26:30.898Z,16.80
2018-06-29T00:28:59.787Z,16.80
2018-06-29T00:31:28.350Z,16.80
2018-06-29T00:33:57.163Z,16.80
2018-06-29T00:36:25.959Z,16.80
2018-06-29T00:38:54.859Z,16.80
2018-06-29T00:41:23.529Z,16.80
2018-06-29T00:43:52.363Z,16.80
2018-06-29T00:46:21.147Z,16.80
2018-06-29T00:48:50.205Z,16.80
2018-06-29T00:51:19.101Z,16.80
2018-06-29T00:53:47.890Z,16.80
2018-06-29T00:56:16.703Z,16.80
2018-06-29T01:01:13.849Z,16.80
2018-06-29T01:03:42.882Z,16.80
2018-06-29T01:06:11.847Z,16.80
2018-06-29T01:08:40.639Z,16.80
2018-06-29T01:11:09.910Z,16.80
2018-06-29T01:13:38.952Z,16.70
2018-06-29T01:16:07.751Z,16.70
2018-06-29T01:18:36.587Z,16.70
2018-06-29T01:21:05.597Z,16.70
2018-06-29T01:23:34.415Z,16.80
2018-06-29T01:26:03.227Z,16.70
2018-06-29T01:28:32.188Z,16.70
2018-06-29T01:31:01.107Z,16.70
2018-06-29T01:33:29.858Z,16.70
2018-06-29T01:35:58.608Z,16.70
2018-06-29T01:38:27.662Z,16.80
2018-06-29T01:40:56.554Z,16.80
2018-06-29T01:43:25.299Z,16.80
2018-06-29T01:45:54.195Z,16.80
2018-06-29T01:48:23.279Z,16.80
2018-06-29T01:50:52.397Z,16.80
2018-06-29T01:53:21.402Z,16.80
2018-06-29T01:55:50.271Z,16.80
2018-06-29T01:58:19.204Z,16.80
2018-06-29T02:00:47.975Z,16.80
2018-06-29T02:03:16.779Z,16.80
2018-06-29T02:05:45.733Z,16.80
2018-06-29T02:08:14.341Z,16.80
2018-06-29T02:10:43.267Z,16.80
2018-06-29T02:13:12.262Z,16.80
2018-06-29T02:15:41.181Z,16.80
2018-06-29T02:18:10.082Z,16.80
2018-06-29T02:20:38.943Z,16.80
2018-06-29T02:23:07.854Z,16.80
2018-06-29T02:25:36.558Z,16.80
2018-06-29T02:28:06.183Z,16.80
2018-06-29T02:30:35.158Z,16.80
2018-06-29T02:35:32.535Z,16.80
2018-06-29T02:38:01.475Z,16.80
2018-06-29T02:40:30.434Z,16.80
2018-06-29T02:42:59.378Z,16.70
2018-06-29T02:45:28.152Z,16.70
2018-06-29T02:47:56.975Z,16.70
2018-06-29T02:50:25.963Z,16.70
2018-06-29T02:52:55.120Z,16.70
2018-06-29T02:55:24.131Z,16.70
2018-06-29T02:57:52.888Z,16.70
2018-06-29T03:00:21.692Z,16.70
2018-06-29T03:02:50.321Z,16.70
2018-06-29T03:05:19.195Z,16.70
2018-06-29T03:07:47.937Z,16.70
2018-06-29T03:10:16.711Z,16.70
2018-06-29T03:12:45.665Z,16.70
2018-06-29T03:15:14.740Z,16.70
2018-06-29T03:17:43.501Z,16.70
2018-06-29T03:20:12.112Z,16.70
2018-06-29T03:22:41.070Z,16.70
2018-06-29T03:25:09.819Z,16.70
2018-06-29T03:27:38.586Z,16.70
2018-06-29T03:30:07.422Z,16.70
2018-06-29T03:32:36.030Z,16.60
2018-06-29T03:35:05.013Z,16.70
2018-06-29T03:37:33.695Z,16.70
2018-06-29T03:40:03.364Z,16.60
2018-06-29T03:42:32.305Z,16.60
2018-06-29T03:45:00.893Z,16.70
2018-06-29T03:47:29.878Z,16.70
2018-06-29T03:49:58.915Z,16.70
2018-06-29T03:52:27.639Z,16.70
2018-06-29T03:54:56.431Z,16.70
2018-06-29T03:57:25.313Z,16.70
2018-06-29T03:59:54.400Z,16.70
2018-06-29T04:02:23.247Z,16.70
2018-06-29T04:04:52.055Z,16.70
2018-06-29T04:07:20.941Z,16.70
2018-06-29T04:12:18.299Z,16.70
2018-06-29T04:14:47.173Z,16.70
2018-06-29T04:17:16.003Z,16.70
2018-06-29T04:19:44.630Z,16.70
2018-06-29T04:22:13.235Z,16.70
2018-06-29T04:24:42.182Z,16.70
2018-06-29T04:27:10.787Z,16.70
2018-06-29T04:29:39.751Z,16.70
2018-06-29T04:32:08.497Z,16.70
2018-06-29T04:34:37.114Z,16.70
2018-06-29T04:37:05.877Z,16.70
2018-06-29T04:39:34.748Z,16.80
2018-06-29T04:42:03.756Z,16.80
2018-06-29T04:44:32.661Z,16.80
2018-06-29T04:47:01.563Z,16.80
2018-06-29T04:49:30.426Z,16.80
2018-06-29T04:51:59.200Z,16.80
2018-06-29T04:54:27.845Z,16.80
2018-06-29T04:56:56.579Z,16.80
2018-06-29T04:59:25.523Z,16.80
2018-06-29T05:01:54.270Z,16.80
2018-06-29T05:04:23.132Z,16.80
2018-06-29T05:06:52.133Z,16.80
2018-06-29T05:09:20.924Z,16.80
2018-06-29T05:11:49.858Z,16.80
2018-06-29T05:14:18.755Z,16.80
2018-06-29T05:16:47.923Z,16.80
2018-06-29T05:19:17.606Z,16.90
2018-06-29T05:21:46.351Z,16.90
2018-06-29T05:24:15.184Z,16.80
2018-06-29T05:26:44.093Z,16.80
2018-06-29T05:29:13.143Z,16.90
2018-06-29T05:31:43.278Z,16.90
2018-06-29T05:34:12.051Z,16.90
2018-06-29T05:36:41.089Z,16.90
2018-06-29T05:39:11.291Z,16.90
2018-06-29T05:41:40.381Z,16.90
2018-06-29T05:44:09.259Z,16.90
2018-06-29T05:46:38.138Z,16.90
2018-06-29T05:49:07.970Z,16.90
2018-06-29T05:54:05.101Z,16.90
2018-06-29T05:56:34.034Z,17.00
2018-06-29T05:59:03.120Z,17.00
2018-06-29T06:01:31.863Z,17.00
2018-06-29T06:04:00.583Z,17.10
2018-06-29T06:06:29.256Z,17.10
2018-06-29T06:08:58.172Z,17.10
2018-06-29T06:11:27.071Z,17.10
2018-06-29T06:13:55.813Z,17.20
2018-06-29T06:16:24.481Z,17.20
2018-06-29T06:20:04.630Z,17.20
2018-06-29T06:22:33.591Z,17.20
2018-06-29T06:25:02.470Z,17.20
2018-06-29T06:27:31.160Z,17.20
2018-06-29T06:29:59.937Z,17.20
2018-06-29T06:32:28.757Z,17.20
2018-06-29T06:34:57.760Z,17.20
2018-06-29T06:37:26.638Z,17.20
2018-06-29T06:39:55.673Z,17.20
2018-06-29T06:42:24.742Z,17.30
2018-06-29T06:44:53.711Z,17.30
2018-06-29T06:47:22.514Z,17.30
2018-06-29T06:49:51.273Z,17.30
2018-06-29T06:52:19.883Z,17.30
2018-06-29T06:54:48.838Z,17.40
2018-06-29T06:57:17.829Z,17.40
2018-06-29T06:59:46.641Z,17.30
2018-06-29T07:02:15.591Z,17.30
2018-06-29T07:04:44.397Z,17.30
2018-06-29T07:07:13.239Z,17.40
2018-06-29T07:09:42.230Z,17.40
2018-06-29T07:12:10.867Z,17.30
2018-06-29T07:14:39.825Z,17.30
2018-06-29T07:17:08.677Z,17.30
2018-06-29T07:19:37.544Z,17.30
2018-06-29T07:22:06.412Z,17.40
2018-06-29T07:24:35.192Z,17.30
2018-06-29T07:27:04.165Z,17.30
2018-06-29T07:29:32.936Z,17.40
2018-06-29T07:32:02.056Z,17.40
2018-06-29T07:34:30.896Z,17.40
2018-06-29T07:36:59.793Z,17.40
2018-06-29T07:39:28.693Z,17.40
2018-06-29T07:41:57.427Z,17.50
2018-06-29T07:44:26.278Z,17.50
2018-06-29T07:46:55.366Z,17.50
2018-06-29T07:49:24.281Z,17.60
2018-06-29T07:51:53.234Z,17.60
2018-06-29T07:54:21.944Z,17.70
2018-06-29T07:56:50.976Z,17.70
2018-06-29T07:59:19.806Z,17.80
2018-06-29T08:01:48.622Z,17.80
2018-06-29T08:04:17.314Z,17.90
2018-06-29T08:06:45.899Z,17.90
2018-06-29T08:09:14.936Z,17.80
2018-06-29T08:11:43.549Z,17.90
2018-06-29T08:14:12.688Z,17.90
2018-06-29T08:16:41.699Z,17.90
2018-06-29T08:19:10.698Z,18.00
2018-06-29T08:21:39.760Z,18.00
2018-06-29T08:24:09.166Z,18.00
2018-06-29T08:26:38.285Z,18.10
2018-06-29T08:29:07.066Z,18.10
2018-06-29T08:31:35.763Z,18.10
2018-06-29T08:34:04.912Z,18.10
2018-06-29T08:36:33.806Z,18.10
2018-06-29T08:39:02.727Z,18.10
2018-06-29T08:41:31.606Z,18.10
2018-06-29T08:44:00.394Z,18.10
2018-06-29T08:46:29.082Z,18.20
2018-06-29T08:48:57.700Z,18.20
2018-06-29T08:51:26.483Z,18.20
2018-06-29T08:56:23.734Z,18.30
2018-06-29T08:58:52.625Z,18.30
2018-06-29T09:01:21.355Z,18.30
2018-06-29T09:03:50.301Z,18.30
2018-06-29T09:06:19.109Z,18.30
2018-06-29T09:08:47.769Z,18.30
2018-06-29T09:11:16.455Z,18.30
2018-06-29T09:13:45.154Z,18.30
2018-06-29T09:16:14.228Z,18.40
2018-06-29T09:18:43.250Z,18.40
2018-06-29T09:21:12.141Z,18.40
2018-06-29T09:26:09.303Z,18.50
2018-06-29T09:28:37.985Z,18.60
2018-06-29T09:31:06.899Z,18.60
2018-06-29T09:33:35.477Z,18.60
2018-06-29T09:36:04.455Z,18.60
2018-06-29T09:38:33.219Z,18.70
2018-06-29T09:41:02.173Z,18.70
2018-06-29T09:43:31.211Z,18.80
2018-06-29T09:46:00.292Z,18.80
2018-06-29T09:48:29.401Z,18.80
2018-06-29T09:50:58.378Z,18.80
2018-06-29T09:53:27.090Z,18.80
2018-06-29T09:55:55.714Z,18.80
2018-06-29T09:58:24.799Z,18.80
2018-06-29T10:00:55.413Z,18.80
2018-06-29T10:03:22.545Z,18.90
2018-06-29T10:05:51.461Z,18.90
2018-06-29T10:08:20.503Z,18.90
2018-06-29T10:10:49.237Z,18.90
2018-06-29T10:13:18.159Z,18.90
2018-06-29T10:15:46.790Z,18.90
2018-06-29T10:18:15.499Z,18.90
2018-06-29T10:20:44.693Z,18.80
2018-06-29T10:23:13.485Z,18.80
2018-06-29T10:25:42.103Z,18.80
2018-06-29T10:30:43.229Z,18.80
2018-06-29T10:33:11.936Z,18.80
2018-06-29T10:35:40.751Z,18.80
2018-06-29T10:38:09.610Z,18.80
2018-06-29T10:40:38.387Z,18.80
2018-06-29T10:43:07.316Z,18.80
2018-06-29T10:45:36.078Z,18.80
2018-06-29T10:48:05.241Z,18.80
2018-06-29T10:50:34.346Z,18.70
2018-06-29T10:53:03.182Z,18.70
2018-06-29T10:55:32.173Z,18.70
2018-06-29T10:58:01.127Z,18.70
2018-06-29T11:00:30.179Z,18.70
2018-06-29T11:02:58.804Z,18.60
2018-06-29T11:05:27.756Z,18.60
2018-06-29T11:07:56.584Z,18.60
2018-06-29T11:10:25.441Z,18.60
2018-06-29T11:12:54.153Z,18.60
2018-06-29T11:15:22.971Z,18.50
2018-06-29T11:17:51.577Z,18.50
2018-06-29T11:20:20.579Z,18.50
2018-06-29T11:22:49.335Z,18.50
2018-06-29T11:27:46.499Z,18.60
2018-06-29T11:30:15.277Z,18.60
2018-06-29T11:32:44.179Z,18.60
2018-06-29T11:35:13.058Z,18.60
2018-06-29T11:37:41.661Z,18.60
2018-06-29T11:40:10.457Z,18.60
2018-06-29T11:45:07.848Z,18.70
2018-06-29T11:47:36.665Z,18.70
2018-06-29T11:50:05.616Z,18.70
2018-06-29T11:52:34.771Z,18.70
2018-06-29T11:55:03.587Z,18.70
2018-06-29T11:57:32.449Z,18.70
2018-06-29T12:02:29.910Z,18.80
2018-06-29T12:04:58.549Z,18.80
2018-06-29T12:07:27.503Z,18.80
2018-06-29T12:09:56.130Z,18.90
2018-06-29T12:12:24.827Z,18.90
2018-06-29T12:14:53.578Z,19.00
2018-06-29T12:17:22.294Z,19.00
2018-06-29T12:19:51.053Z,19.00
2018-06-29T12:22:19.923Z,19.00
2018-06-29T12:24:48.851Z,19.00
2018-06-29T12:27:17.735Z,19.00
2018-06-29T12:29:46.371Z,19.00
2018-06-29T12:32:15.104Z,19.00
2018-06-29T12:34:45.947Z,19.00
2018-06-29T12:37:14.819Z,19.00
2018-06-29T12:39:43.698Z,19.00
2018-06-29T12:42:12.399Z,19.00
2018-06-29T12:44:41.242Z,19.00
2018-06-29T12:47:10.197Z,19.00
2018-06-29T12:49:38.809Z,19.00
2018-06-29T12:52:07.869Z,19.00
2018-06-29T12:54:36.890Z,19.00
2018-06-29T12:57:05.874Z,19.00
2018-06-29T12:59:34.663Z,19.00
2018-06-29T13:02:03.449Z,19.00
2018-06-29T13:04:32.365Z,19.10
2018-06-29T13:07:01.104Z,19.10
2018-06-29T13:09:30.038Z,19.10
2018-06-29T13:11:58.902Z,19.10
2018-06-29T13:14:27.930Z,19.10
2018-06-29T13:16:56.789Z,19.10
2018-06-29T13:19:25.670Z,19.10
2018-06-29T13:21:54.785Z,19.10
2018-06-29T13:24:23.481Z,19.10
2018-06-29T13:26:52.338Z,19.10
2018-06-29T13:29:21.288Z,19.10
2018-06-29T13:31:50.221Z,19.10
2018-06-29T13:34:18.929Z,19.10
2018-06-29T13:36:47.734Z,19.10
2018-06-29T13:39:16.403Z,19.10
2018-06-29T13:41:45.338Z,19.20
2018-06-29T13:44:14.224Z,19.20
2018-06-29T13:46:43.066Z,19.20
2018-06-29T13:49:11.971Z,19.20
2018-06-29T13:51:40.980Z,19.20
2018-06-29T13:54:09.752Z,19.20
2018-06-29T13:56:38.735Z,19.10
2018-06-29T13:59:07.663Z,19.10
2018-06-29T14:01:36.536Z,19.10
2018-06-29T14:04:05.503Z,19.20
2018-06-29T14:06:34.386Z,19.10
2018-06-29T14:09:03.581Z,19.10
2018-06-29T14:11:32.477Z,19.10
2018-06-29T14:14:01.518Z,19.10
2018-06-29T14:16:30.383Z,19.10
2018-06-29T14:18:59.135Z,19.10
2018-06-29T14:21:27.713Z,19.00
2018-06-29T14:23:56.510Z,19.00
2018-06-29T14:26:25.317Z,19.00
2018-06-29T14:28:53.955Z,19.00
2018-06-29T14:31:22.739Z,18.90
2018-06-29T14:33:51.779Z,18.90
2018-06-29T14:36:20.609Z,19.00
2018-06-29T14:38:49.539Z,19.00
2018-06-29T14:41:18.445Z,19.00
2018-06-29T14:43:47.209Z,19.00
2018-06-29T14:46:16.049Z,19.00
2018-06-29T14:48:44.845Z,19.10
2018-06-29T14:51:13.814Z,19.10
2018-06-29T14:53:42.520Z,19.10
2018-06-29T14:56:11.330Z,19.10
2018-06-29T14:58:40.227Z,19.00
2018-06-29T15:01:08.879Z,19.00
2018-06-29T15:03:37.863Z,19.00
2018-06-29T15:06:06.839Z,19.00
2018-06-29T15:08:35.750Z,18.90
2018-06-29T15:11:04.459Z,19.00
2018-06-29T15:13:33.104Z,19.00
2018-06-29T15:16:02.301Z,19.00
2018-06-29T15:18:31.426Z,19.00
2018-06-29T15:21:00.156Z,19.10
2018-06-29T15:23:29.363Z,19.10
2018-06-29T15:25:58.346Z,19.20
2018-06-29T15:28:27.414Z,19.10
2018-06-29T15:30:56.459Z,19.20
2018-06-29T15:33:25.388Z,19.10
2018-06-29T15:35:54.235Z,19.10
2018-06-29T15:40:51.527Z,19.10
2018-06-29T15:43:20.404Z,19.00
2018-06-29T15:45:49.182Z,19.00
2018-06-29T15:48:18.187Z,19.00
2018-06-29T15:50:46.940Z,19.00
2018-06-29T15:53:15.915Z,19.00
2018-06-29T15:55:44.619Z,19.00
2018-06-29T15:58:13.419Z,19.00
2018-06-29T16:00:42.431Z,19.00
2018-06-29T16:03:11.301Z,19.00
2018-06-29T16:05:40.298Z,19.00
2018-06-29T16:08:09.220Z,19.00
2018-06-29T16:10:37.910Z,19.00
2018-06-29T16:13:06.670Z,19.00
2018-06-29T16:15:35.409Z,19.00
2018-06-29T16:18:04.000Z,19.00
2018-06-29T16:20:32.684Z,19.00
2018-06-29T16:23:01.563Z,19.00
2018-06-29T16:25:30.622Z,19.00
2018-06-29T16:27:59.662Z,19.00
2018-06-29T16:30:28.493Z,18.90
2018-06-29T16:32:57.463Z,18.90
2018-06-29T16:35:26.403Z,18.90
2018-06-29T16:40:23.590Z,19.00
2018-06-29T16:42:52.522Z,18.90
2018-06-29T16:45:21.658Z,18.90
2018-06-29T16:47:50.372Z,18.90
2018-06-29T16:50:19.272Z,19.00
2018-06-29T16:52:47.987Z,19.00
2018-06-29T16:55:18.319Z,19.00
2018-06-29T16:57:47.405Z,19.00
2018-06-29T17:00:16.145Z,18.90
2018-06-29T17:02:44.967Z,19.00
2018-06-29T17:05:13.994Z,19.00
2018-06-29T17:07:42.885Z,19.00
2018-06-29T17:10:11.589Z,19.00
2018-06-29T17:12:40.435Z,19.00
2018-06-29T17:15:09.656Z,19.00
2018-06-29T17:17:38.483Z,19.00
2018-06-29T17:20:07.270Z,19.00
2018-06-29T17:22:36.125Z,19.00
2018-06-29T17:25:04.860Z,19.00
2018-06-29T17:27:33.589Z,19.00
2018-06-29T17:30:02.457Z,19.00
2018-06-29T17:32:31.302Z,19.00
2018-06-29T17:35:00.009Z,19.00
2018-06-29T17:37:28.968Z,19.00
2018-06-29T17:39:57.832Z,18.90
2018-06-29T17:42:26.950Z,19.00
2018-06-29T17:44:55.775Z,19.00
2018-06-29T17:47:24.727Z,19.00
2018-06-29T17:49:53.655Z,19.00
2018-06-29T17:52:22.450Z,19.00
2018-06-29T17:54:51.327Z,18.90
2018-06-29T17:57:19.934Z,18.90
2018-06-29T17:59:48.911Z,18.90
2018-06-29T18:02:17.786Z,18.90
2018-06-29T18:04:46.530Z,18.90
2018-06-29T18:07:15.794Z,18.90
2018-06-29T18:09:44.705Z,18.90
2018-06-29T18:12:14.292Z,18.90
2018-06-29T18:14:43.114Z,18.90
2018-06-29T18:17:11.789Z,18.90
2018-06-29T18:19:40.966Z,18.90
2018-06-29T18:27:07.352Z,18.90
2018-06-29T18:29:36.093Z,18.90
2018-06-29T18:32:04.917Z,18.80
2018-06-29T18:34:33.748Z,18.90
2018-06-29T18:37:02.665Z,18.80
2018-06-29T18:39:31.616Z,18.80
2018-06-29T18:42:00.500Z,18.80
2018-06-29T18:58:42.961Z,18.80
2018-06-29T19:01:12.069Z,18.80
2018-06-29T19:03:40.850Z,18.80
2018-06-29T19:06:09.882Z,18.80
2018-06-29T19:08:43.303Z,18.80
2018-06-29T19:11:11.956Z,18.80
2018-06-29T19:13:40.587Z,18.80
2018-06-29T19:16:09.677Z,18.80
2018-06-29T19:18:38.796Z,18.80
2018-06-29T19:21:08.101Z,18.80
2018-06-29T19:23:36.989Z,18.80
2018-06-29T19:26:17.316Z,18.70
2018-06-29T19:28:46.415Z,18.80
2018-06-29T19:31:15.319Z,18.80
2018-06-29T19:33:44.179Z,18.80
2018-06-29T19:36:13.127Z,18.70
2018-06-29T19:38:42.102Z,18.80
2018-06-29T19:41:10.891Z,18.80
2018-06-29T19:43:39.752Z,18.80
2018-06-29T19:46:08.886Z,18.80
2018-06-29T19:48:37.774Z,18.80
2018-06-29T19:51:06.934Z,18.70
2018-06-29T19:53:35.701Z,18.80
2018-06-29T19:56:04.766Z,18.80
2018-06-29T19:58:33.486Z,18.80
2018-06-29T20:01:02.250Z,18.70
2018-06-29T20:03:31.071Z,18.70
2018-06-29T20:05:59.871Z,18.80
2018-06-29T20:08:28.798Z,18.70
2018-06-29T20:10:57.623Z,18.70
2018-06-29T20:13:26.470Z,18.70
2018-06-29T20:15:55.397Z,18.70
2018-06-29T20:18:24.194Z,18.70
2018-06-29T20:20:53.131Z,18.70
2018-06-29T20:23:21.972Z,18.70
2018-06-29T20:25:50.938Z,18.60
2018-06-29T20:28:19.689Z,18.70
2018-06-29T20:30:48.442Z,18.70
2018-06-29T20:33:17.347Z,18.60
2018-06-29T20:35:46.443Z,18.60
2018-06-29T20:38:15.493Z,18.60
2018-06-29T20:40:44.312Z,18.60
2018-06-29T20:43:12.978Z,18.60
2018-06-29T20:45:41.786Z,18.60
2018-06-29T20:48:10.619Z,18.60
2018-06-29T20:50:39.559Z,18.60
2018-06-29T20:53:08.722Z,18.60
2018-06-29T20:55:37.763Z,18.50
2018-06-29T20:58:06.836Z,18.50
2018-06-29T21:00:35.594Z,18.50
2018-06-29T21:03:04.563Z,18.50
2018-06-29T21:05:33.185Z,18.50
2018-06-29T21:08:02.018Z,18.50
2018-06-29T21:10:30.898Z,18.50
2018-06-29T21:12:59.478Z,18.50
2018-06-29T21:15:28.107Z,18.50
2018-06-29T21:17:57.169Z,18.40
2018-06-29T21:20:26.033Z,18.40
2018-06-29T21:22:55.087Z,18.50
2018-06-29T21:25:23.762Z,18.40
2018-06-29T21:27:52.607Z,18.40
2018-06-29T21:30:21.587Z,18.40
2018-06-29T21:32:50.521Z,18.30
2018-06-29T21:35:19.399Z,18.30
2018-06-29T21:37:48.267Z,18.40
2018-06-29T21:40:16.994Z,18.30
2018-06-29T21:42:45.664Z,18.30
2018-06-29T21:45:14.662Z,18.30
2018-06-29T21:47:43.565Z,18.30
2018-06-29T21:50:12.617Z,18.30
2018-06-29T21:52:41.393Z,18.30
2018-06-29T21:55:10.442Z,18.30
2018-06-29T21:57:39.111Z,18.30
2018-06-29T22:00:10.770Z,18.30
2018-06-29T22:02:39.948Z,18.20
2018-06-29T22:05:08.999Z,18.20
2018-06-29T22:10:07.531Z,18.20
2018-06-29T22:12:36.257Z,18.30
2018-06-29T22:15:09.869Z,18.20
2018-06-29T22:17:38.670Z,18.20
2018-06-29T22:20:07.297Z,18.20
2018-06-29T22:22:36.295Z,18.10
2018-06-29T22:25:06.330Z,18.20
2018-06-29T22:27:35.029Z,18.20
2018-06-29T22:30:03.888Z,18.10
2018-06-29T22:32:32.720Z,18.10
2018-06-29T22:35:01.328Z,18.10
2018-06-29T22:37:30.463Z,18.10
2018-06-29T22:39:59.200Z,18.00
2018-06-29T22:42:27.955Z,18.10
2018-06-29T22:44:56.908Z,18.00
2018-06-29T22:47:25.629Z,18.00
2018-06-29T22:49:54.475Z,17.90
2018-06-29T22:54:51.649Z,17.90
2018-06-29T22:57:20.489Z,17.90
2018-06-29T22:59:49.603Z,17.90
2018-06-29T23:02:18.530Z,17.90
2018-06-29T23:04:47.409Z,17.90
2018-06-29T23:07:16.374Z,17.90
2018-06-29T23:09:45.193Z,17.90
2018-06-29T23:12:14.187Z,17.90
2018-06-29T23:14:43.120Z,17.90
2018-06-29T23:17:11.750Z,17.90
2018-06-29T23:19:40.640Z,17.90
2018-06-29T23:22:09.630Z,17.90
2018-06-29T23:24:38.441Z,17.90
2018-06-29T23:27:07.403Z,17.90
2018-06-29T23:29:36.278Z,17.90
2018-06-29T23:32:05.310Z,17.90
2018-06-29T23:34:34.158Z,17.90
2018-06-29T23:37:03.015Z,17.90
2018-06-29T23:39:32.019Z,17.80
2018-06-29T23:42:00.858Z,17.80
2018-06-29T23:44:29.601Z,17.80
2018-06-29T23:46:58.436Z,17.80
2018-06-29T23:49:27.455Z,17.80
2018-06-29T23:51:56.404Z,17.80
2018-06-29T23:54:25.323Z,17.80
2018-06-29T23:56:54.452Z,17.80
2018-06-29T23:59:23.300Z,17.80
